Time;durP1;ratioP1;P1;durP2;ratioP2;P2;SDS_P1;SDS_P2;PMS_P1;PMS_P2;Temp;Humidity;BMP_temperature;BMP_pressure;BME280_temperature;BME280_humidity;BME280_pressure;Samples;Min_cycle;Max_cycle;Signal;HPM_P1;HPM_P2
2021/07/13 00:00:32;;;;;;;;;;;14.90;99.90;;;;;;4987648;28;20045;-64
2021/07/13 00:02:59;;;;;;;;;;;14.90;99.90;;;;;;4986927;28;20165;-63
2021/07/13 00:05:25;;;;;;;;;;;14.90;99.90;;;;;;4987017;28;20003;-64
2021/07/13 00:07:51;;;;;;;;;;;14.90;99.90;;;;;;4987603;28;20009;-64
2021/07/13 00:10:22;;;;;;;;;;;15.00;99.90;;;;;;4987097;28;19997;-63
2021/07/13 00:12:49;;;;;;;;;;;15.00;99.90;;;;;;4987628;28;20641;-64
2021/07/13 00:15:22;;;;;;;;;;;14.80;99.90;;;;;;4987269;28;20045;-64
2021/07/13 00:17:48;;;;;;;;;;;14.80;99.90;;;;;;4987447;28;20005;-64
2021/07/13 00:20:14;;;;;;;;;;;14.80;99.90;;;;;;4987767;28;20412;-64
2021/07/13 00:22:40;;;;;;;;;;;14.80;99.90;;;;;;4987377;28;19987;-64
2021/07/13 00:25:07;;;;;;;;;;;14.70;99.90;;;;;;4986239;28;19998;-64
2021/07/13 00:27:32;;;;;;;;;;;14.50;99.90;;;;;;4987770;28;20354;-64
2021/07/13 00:29:58;;;;;;;;;;;14.60;99.90;;;;;;4987849;28;19997;-64
2021/07/13 00:32:23;;;;;;;;;;;14.70;99.90;;;;;;4986922;28;19994;-63
2021/07/13 00:34:49;;;;;;;;;;;14.70;99.90;;;;;;4987276;28;20010;-64
2021/07/13 00:37:14;;;;;;;;;;;14.60;99.90;;;;;;4986859;28;20380;-64
2021/07/13 00:39:40;;;;;;;;;;;14.60;99.90;;;;;;4986527;28;20380;-64
2021/07/13 00:42:11;;;;;;;;;;;14.50;99.90;;;;;;4986866;28;19993;-63
2021/07/13 00:44:37;;;;;;;;;;;14.60;99.90;;;;;;4986830;28;19986;-63
2021/07/13 00:47:02;;;;;;;;;;;14.50;99.90;;;;;;4987562;28;20061;-63
2021/07/13 00:49:28;;;;;;;;;;;14.40;99.90;;;;;;4986805;28;19994;-62
2021/07/13 00:51:53;;;;;;;;;;;14.40;99.90;;;;;;4986614;28;20081;-62
2021/07/13 00:54:19;;;;;;;;;;;14.50;99.90;;;;;;4985423;28;20065;-63
2021/07/13 00:56:49;;;;;;;;;;;14.40;99.90;;;;;;4986870;28;20023;-63
2021/07/13 00:59:14;;;;;;;;;;;14.70;99.90;;;;;;4986457;28;19992;-63
2021/07/13 01:01:40;;;;;;;;;;;14.80;99.90;;;;;;4986627;28;19986;-63
2021/07/13 01:04:06;;;;;;;;;;;14.80;99.90;;;;;;4986448;28;20361;-62
2021/07/13 01:06:51;;;;;;;;;;;14.90;99.90;;;;;;4985777;28;20010;-62
2021/07/13 01:09:35;;;;;;;;;;;15.00;99.90;;;;;;4986058;28;20372;-62
2021/07/13 01:12:26;;;;;;;;;;;15.00;99.90;;;;;;4986013;28;19986;-61
2021/07/13 01:14:53;;;;;;;;;;;15.00;99.90;;;;;;4984891;28;19990;-61
2021/07/13 01:17:23;;;;;;;;;;;15.00;99.90;;;;;;4985357;28;19989;-62
2021/07/13 01:19:49;;;;;;;;;;;15.00;99.90;;;;;;4986394;28;20057;-62
2021/07/13 01:22:33;;;;;;;;;;;15.10;99.90;;;;;;4986188;28;20026;-62
2021/07/13 01:24:58;;;;;;;;;;;15.10;99.90;;;;;;4986017;28;19987;-61
2021/07/13 01:27:30;;;;;;;;;;;15.10;99.90;;;;;;4986320;28;20006;-61
2021/07/13 01:29:57;;;;;;;;;;;15.00;99.90;;;;;;4986143;28;19990;-62
2021/07/13 01:32:26;;;;;;;;;;;15.10;99.90;;;;;;4985851;28;20516;-62
2021/07/13 01:34:55;;;;;;;;;;;15.10;99.90;;;;;;4986207;28;19983;-62
2021/07/13 01:37:21;;;;;;;;;;;14.90;99.90;;;;;;4985996;28;19983;-62
2021/07/13 01:39:50;;;;;;;;;;;14.90;99.90;;;;;;4986180;28;20420;-62
2021/07/13 01:42:16;;;;;;;;;;;14.80;99.90;;;;;;4985874;28;19986;-62
2021/07/13 01:44:44;;;;;;;;;;;14.80;99.90;;;;;;4986393;28;20093;-62
2021/07/13 01:47:10;;;;;;;;;;;14.80;99.90;;;;;;4985806;28;20006;-62
2021/07/13 01:49:37;;;;;;;;;;;14.90;99.90;;;;;;4984171;28;20744;-61
2021/07/13 01:52:03;;;;;;;;;;;14.90;99.90;;;;;;4986226;28;20517;-62
2021/07/13 01:54:30;;;;;;;;;;;14.80;99.90;;;;;;4986139;28;20041;-62
2021/07/13 01:56:57;;;;;;;;;;;14.90;99.90;;;;;;4985778;28;19990;-62
2021/07/13 01:59:24;;;;;;;;;;;15.00;99.90;;;;;;4986253;28;20453;-62
2021/07/13 02:01:52;;;;;;;;;;;15.00;99.90;;;;;;4986156;28;20544;-62
2021/07/13 02:04:18;;;;;;;;;;;15.10;99.90;;;;;;4986229;28;20140;-62
2021/07/13 02:06:44;;;;;;;;;;;15.10;99.90;;;;;;4989956;28;20109;-62
2021/07/13 02:09:11;;;;;;;;;;;15.20;99.90;;;;;;5004452;28;20065;-62
2021/07/13 02:11:37;;;;;;;;;;;15.20;99.90;;;;;;4989844;28;19982;-62
2021/07/13 02:14:03;;;;;;;;;;;15.20;99.90;;;;;;4989929;28;20089;-62
2021/07/13 02:16:29;;;;;;;;;;;15.10;99.90;;;;;;5004813;28;20077;-62
2021/07/13 02:18:54;;;;;;;;;;;15.00;99.90;;;;;;4989566;28;20245;-62
2021/07/13 02:21:21;;;;;;;;;;;15.00;99.90;;;;;;4989401;28;20082;-62
2021/07/13 02:23:46;;;;;;;;;;;15.10;99.90;;;;;;4988992;28;19994;-62
2021/07/13 02:26:17;;;;;;;;;;;15.10;99.90;;;;;;4989214;28;20401;-62
2021/07/13 02:28:44;;;;;;;;;;;15.10;99.90;;;;;;4989469;28;20455;-62
2021/07/13 02:31:18;;;;;;;;;;;15.10;99.90;;;;;;4989005;28;19983;-62
2021/07/13 02:33:49;;;;;;;;;;;15.20;99.90;;;;;;4989667;28;19990;-62
2021/07/13 02:36:18;;;;;;;;;;;15.20;99.90;;;;;;4989270;28;19994;-62
2021/07/13 02:38:44;;;;;;;;;;;15.20;99.90;;;;;;4988852;28;20018;-62
2021/07/13 02:41:10;;;;;;;;;;;15.40;99.90;;;;;;4989172;28;19987;-62
2021/07/13 02:43:37;;;;;;;;;;;15.40;99.90;;;;;;4989741;28;19987;-62
2021/07/13 02:46:03;;;;;;;;;;;15.40;99.90;;;;;;4989420;28;20014;-62
2021/07/13 02:48:29;;;;;;;;;;;15.40;99.90;;;;;;4988904;28;19987;-62
2021/07/13 02:50:57;;;;;;;;;;;15.30;99.90;;;;;;4988955;28;20064;-61
2021/07/13 02:53:24;;;;;;;;;;;15.30;99.90;;;;;;5003597;28;20069;-61
2021/07/13 02:55:49;;;;;;;;;;;15.30;99.90;;;;;;4989022;28;20088;-62
2021/07/13 02:58:15;;;;;;;;;;;15.30;99.90;;;;;;4988682;28;20042;-62
2021/07/13 03:00:41;;;;;;;;;;;15.30;99.90;;;;;;4988910;28;19990;-62
2021/07/13 03:03:07;;;;;;;;;;;15.20;99.90;;;;;;4988623;28;20360;-62
2021/07/13 03:05:34;;;;;;;;;;;15.30;99.90;;;;;;4989266;28;20003;-62
2021/07/13 03:08:01;;;;;;;;;;;15.40;99.90;;;;;;4988189;28;19987;-62
2021/07/13 03:10:27;;;;;;;;;;;15.40;99.90;;;;;;4988593;28;19987;-61
2021/07/13 03:12:54;;;;;;;;;;;15.30;99.90;;;;;;4988806;28;19987;-62
2021/07/13 03:15:27;;;;;;;;;;;15.30;99.90;;;;;;4988472;28;20018;-61
2021/07/13 03:17:54;;;;;;;;;;;15.30;99.90;;;;;;4988096;28;19994;-61
2021/07/13 03:20:21;;;;;;;;;;;15.40;99.90;;;;;;4988410;28;20041;-61
2021/07/13 03:22:48;;;;;;;;;;;15.40;99.90;;;;;;4988393;28;20527;-61
2021/07/13 03:25:15;;;;;;;;;;;15.40;99.90;;;;;;4987628;28;20651;-61
2021/07/13 03:27:42;;;;;;;;;;;15.50;99.90;;;;;;4988343;28;19987;-61
2021/07/13 03:30:08;;;;;;;;;;;15.50;99.90;;;;;;4988158;28;19991;-62
2021/07/13 03:32:35;;;;;;;;;;;15.50;99.90;;;;;;4988914;28;20201;-62
2021/07/13 03:35:03;;;;;;;;;;;15.50;99.90;;;;;;4988688;28;20010;-62
2021/07/13 03:37:29;;;;;;;;;;;15.50;99.90;;;;;;4988112;28;19991;-62
2021/07/13 03:39:56;;;;;;;;;;;15.50;99.90;;;;;;4988451;28;20388;-62
2021/07/13 03:42:21;;;;;;;;;;;15.50;99.90;;;;;;4988135;28;19983;-61
2021/07/13 03:44:48;;;;;;;;;;;15.60;99.90;;;;;;4987932;28;20466;-61
2021/07/13 03:47:14;;;;;;;;;;;15.50;99.90;;;;;;4987885;28;20007;-61
2021/07/13 03:49:41;;;;;;;;;;;15.60;99.90;;;;;;4987743;28;19986;-61
2021/07/13 03:52:07;;;;;;;;;;;15.60;99.90;;;;;;4987692;28;19986;-61
2021/07/13 03:54:33;;;;;;;;;;;15.60;99.90;;;;;;4988562;28;19994;-61
2021/07/13 03:56:59;;;;;;;;;;;15.50;99.90;;;;;;4987778;28;20010;-62
2021/07/13 03:59:25;;;;;;;;;;;15.50;99.90;;;;;;4987998;28;20078;-61
2021/07/13 04:01:51;;;;;;;;;;;15.50;99.90;;;;;;4987712;28;20612;-62
2021/07/13 04:04:16;;;;;;;;;;;15.40;99.90;;;;;;4987647;28;20081;-61
2021/07/13 04:06:42;;;;;;;;;;;15.40;99.90;;;;;;4987756;28;20007;-61
2021/07/13 04:09:08;;;;;;;;;;;15.30;99.90;;;;;;4987271;28;19983;-61
2021/07/13 04:11:34;;;;;;;;;;;15.40;99.90;;;;;;4988391;28;20053;-61
2021/07/13 04:14:00;;;;;;;;;;;15.30;99.90;;;;;;4987550;28;19997;-61
2021/07/13 04:16:25;;;;;;;;;;;15.20;99.90;;;;;;4987522;28;20089;-61
2021/07/13 04:18:52;;;;;;;;;;;15.30;99.90;;;;;;4987688;28;19983;-61
2021/07/13 04:21:17;;;;;;;;;;;15.40;99.90;;;;;;4987191;28;20423;-61
2021/07/13 04:23:44;;;;;;;;;;;15.50;99.90;;;;;;4987218;28;19987;-61
2021/07/13 04:26:11;;;;;;;;;;;15.40;99.90;;;;;;4987103;28;20009;-61
2021/07/13 04:28:37;;;;;;;;;;;15.30;99.90;;;;;;4987088;28;19998;-61
2021/07/13 04:31:02;;;;;;;;;;;15.50;99.90;;;;;;4987478;28;20411;-61
2021/07/13 04:33:30;;;;;;;;;;;15.50;99.90;;;;;;4987710;28;20046;-61
2021/07/13 04:35:57;;;;;;;;;;;15.50;99.90;;;;;;4987231;28;20018;-61
2021/07/13 04:38:23;;;;;;;;;;;15.40;99.90;;;;;;4987184;28;20477;-61
2021/07/13 04:40:49;;;;;;;;;;;15.40;99.90;;;;;;4987306;28;19987;-61
2021/07/13 04:43:15;;;;;;;;;;;15.50;99.90;;;;;;4986627;28;20435;-61
2021/07/13 04:45:42;;;;;;;;;;;15.50;99.90;;;;;;4986993;28;20041;-61
2021/07/13 04:48:07;;;;;;;;;;;15.40;99.90;;;;;;4986530;28;20151;-61
2021/07/13 04:50:33;;;;;;;;;;;15.30;99.90;;;;;;4987460;28;20090;-61
2021/07/13 04:52:59;;;;;;;;;;;15.40;99.90;;;;;;4986427;28;19998;-60
2021/07/13 04:55:24;;;;;;;;;;;15.40;99.90;;;;;;5001841;28;20030;-61
2021/07/13 04:57:50;;;;;;;;;;;15.40;99.90;;;;;;4987297;28;19983;-61
2021/07/13 05:00:16;;;;;;;;;;;15.50;99.90;;;;;;4986649;28;19987;-61
2021/07/13 05:02:41;;;;;;;;;;;15.40;99.90;;;;;;4986906;28;20360;-61
2021/07/13 05:05:10;;;;;;;;;;;15.40;99.90;;;;;;4986708;28;19983;-61
2021/07/13 05:07:42;;;;;;;;;;;15.40;99.90;;;;;;4986355;28;20097;-61
2021/07/13 05:10:09;;;;;;;;;;;15.50;99.90;;;;;;4986188;28;20368;-61
2021/07/13 05:12:35;;;;;;;;;;;15.40;99.90;;;;;;4987534;28;19989;-61
2021/07/13 05:15:00;;;;;;;;;;;15.30;99.90;;;;;;4986993;28;20493;-61
2021/07/13 05:17:26;;;;;;;;;;;15.40;99.90;;;;;;4986676;28;20122;-60
2021/07/13 05:19:51;;;;;;;;;;;15.40;99.90;;;;;;4986538;28;20036;-60
2021/07/13 05:22:19;;;;;;;;;;;15.50;99.90;;;;;;4986176;28;19993;-60
2021/07/13 05:24:45;;;;;;;;;;;15.40;99.90;;;;;;4986162;28;20010;-60
2021/07/13 05:27:13;;;;;;;;;;;15.40;99.90;;;;;;4986533;28;20622;-60
2021/07/13 05:29:42;;;;;;;;;;;15.50;99.90;;;;;;4987662;28;20488;-60
2021/07/13 05:32:07;;;;;;;;;;;15.50;99.90;;;;;;4981559;28;19983;-60
2021/07/13 05:34:33;;;;;;;;;;;15.50;99.90;;;;;;4968945;28;20374;-61
2021/07/13 05:36:58;;;;;;;;;;;15.60;99.90;;;;;;4983722;28;20088;-60
2021/07/13 05:39:24;;;;;;;;;;;15.60;99.90;;;;;;4987088;28;19991;-60
2021/07/13 05:41:50;;;;;;;;;;;15.60;99.90;;;;;;4983109;28;20026;-60
2021/07/13 05:44:16;;;;;;;;;;;15.60;99.90;;;;;;4967806;28;19990;-60
2021/07/13 05:46:42;;;;;;;;;;;15.60;99.90;;;;;;4968431;28;20042;-60
2021/07/13 05:49:07;;;;;;;;;;;15.80;99.90;;;;;;4967994;28;20537;-60
2021/07/13 05:51:33;;;;;;;;;;;15.80;99.90;;;;;;4968626;28;19987;-59
2021/07/13 05:53:58;;;;;;;;;;;15.80;99.90;;;;;;4968281;28;20003;-60
2021/07/13 05:56:24;;;;;;;;;;;15.70;99.90;;;;;;4987502;28;19994;-60
2021/07/13 05:58:50;;;;;;;;;;;15.70;99.90;;;;;;4987285;28;20030;-60
2021/07/13 06:01:16;;;;;;;;;;;15.70;99.90;;;;;;4987141;28;19994;-60
2021/07/13 06:03:41;;;;;;;;;;;15.70;99.90;;;;;;4987554;28;20029;-60
2021/07/13 06:06:07;;;;;;;;;;;15.80;99.90;;;;;;4985647;28;20072;-60
2021/07/13 06:08:32;;;;;;;;;;;15.80;99.90;;;;;;4986650;28;20081;-60
2021/07/13 06:10:58;;;;;;;;;;;15.90;99.90;;;;;;4983692;28;20110;-60
2021/07/13 06:13:23;;;;;;;;;;;15.90;99.90;;;;;;4985628;28;20413;-60
2021/07/13 06:15:49;;;;;;;;;;;15.90;99.90;;;;;;4987256;28;19995;-60
2021/07/13 06:18:18;;;;;;;;;;;15.90;99.90;;;;;;4986144;28;19991;-59
2021/07/13 06:20:44;;;;;;;;;;;16.00;99.90;;;;;;4985484;28;19983;-59
2021/07/13 06:23:09;;;;;;;;;;;15.90;99.90;;;;;;4983052;28;20485;-59
2021/07/13 06:25:35;;;;;;;;;;;15.90;99.90;;;;;;4986663;28;19993;-59
2021/07/13 06:28:00;;;;;;;;;;;15.90;99.90;;;;;;4987164;28;19998;-59
2021/07/13 06:30:26;;;;;;;;;;;15.90;99.90;;;;;;4975207;28;19987;-59
2021/07/13 06:32:53;;;;;;;;;;;15.80;99.90;;;;;;4975145;28;20029;-60
2021/07/13 06:35:19;;;;;;;;;;;15.80;99.90;;;;;;4981723;28;21260;-60
2021/07/13 06:37:44;;;;;;;;;;;15.70;99.90;;;;;;4984325;28;19987;-59
2021/07/13 06:40:12;;;;;;;;;;;15.70;99.90;;;;;;4984617;28;19986;-60
2021/07/13 06:42:38;;;;;;;;;;;15.70;99.90;;;;;;4972855;28;19987;-60
2021/07/13 06:45:04;;;;;;;;;;;15.80;99.90;;;;;;4966080;28;20516;-59
2021/07/13 06:47:29;;;;;;;;;;;15.80;99.90;;;;;;4965851;28;20007;-59
2021/07/13 06:49:55;;;;;;;;;;;15.90;99.90;;;;;;4987528;28;20476;-59
2021/07/13 06:52:21;;;;;;;;;;;15.80;99.90;;;;;;4988403;28;20389;-59
2021/07/13 06:54:46;;;;;;;;;;;15.80;99.90;;;;;;4990463;28;20096;-60
2021/07/13 06:57:11;;;;;;;;;;;15.90;99.90;;;;;;4989861;28;20495;-59
2021/07/13 06:59:37;;;;;;;;;;;15.80;99.90;;;;;;4989867;28;19987;-59
2021/07/13 07:02:03;;;;;;;;;;;15.80;99.90;;;;;;4990171;28;19990;-59
2021/07/13 07:04:28;;;;;;;;;;;15.80;99.90;;;;;;4990197;28;20026;-59
2021/07/13 07:06:54;;;;;;;;;;;15.90;99.90;;;;;;4989814;28;20009;-59
2021/07/13 07:09:19;;;;;;;;;;;15.90;99.90;;;;;;4989740;28;19983;-59
2021/07/13 07:11:45;;;;;;;;;;;15.90;99.90;;;;;;4989917;28;20161;-60
2021/07/13 07:14:10;;;;;;;;;;;15.90;99.90;;;;;;4989707;28;20077;-59
2021/07/13 07:16:37;;;;;;;;;;;15.90;99.90;;;;;;5004593;28;19995;-59
2021/07/13 07:19:03;;;;;;;;;;;16.00;99.90;;;;;;4990246;28;19987;-59
2021/07/13 07:21:28;;;;;;;;;;;16.10;99.90;;;;;;4989551;28;20030;-59
2021/07/13 07:23:54;;;;;;;;;;;15.90;99.90;;;;;;4989288;28;19990;-59
2021/07/13 07:26:20;;;;;;;;;;;16.00;99.90;;;;;;4989170;28;20014;-59
2021/07/13 07:28:47;;;;;;;;;;;16.00;99.90;;;;;;4989764;28;19991;-59
2021/07/13 07:31:15;;;;;;;;;;;16.10;99.90;;;;;;4989236;28;20025;-59
2021/07/13 07:33:40;;;;;;;;;;;16.20;99.90;;;;;;4989402;28;19987;-59
2021/07/13 07:36:06;;;;;;;;;;;16.10;99.90;;;;;;4987342;28;19995;-59
2021/07/13 07:38:32;;;;;;;;;;;16.20;99.90;;;;;;4989804;28;20003;-59
2021/07/13 07:40:57;;;;;;;;;;;16.30;99.90;;;;;;4989514;28;20411;-59
2021/07/13 07:43:23;;;;;;;;;;;16.30;99.90;;;;;;4989298;28;19991;-59
2021/07/13 07:45:48;;;;;;;;;;;16.60;99.90;;;;;;4989262;28;20060;-59
2021/07/13 07:48:14;;;;;;;;;;;16.50;99.90;;;;;;4988948;28;19991;-59
2021/07/13 07:50:39;;;;;;;;;;;16.50;99.90;;;;;;4988900;28;20077;-59
2021/07/13 07:53:05;;;;;;;;;;;16.50;99.90;;;;;;4989590;28;20017;-59
2021/07/13 07:55:31;;;;;;;;;;;16.60;99.90;;;;;;4989424;28;19987;-59
2021/07/13 07:57:58;;;;;;;;;;;16.50;99.90;;;;;;4987656;28;19982;-59
2021/07/13 08:00:24;;;;;;;;;;;16.40;99.90;;;;;;4988515;28;19987;-59
2021/07/13 08:02:49;;;;;;;;;;;16.50;99.90;;;;;;4989025;28;19990;-59
2021/07/13 08:05:15;;;;;;;;;;;16.50;99.90;;;;;;4987726;28;20006;-59
2021/07/13 08:07:41;;;;;;;;;;;16.40;99.90;;;;;;4972145;28;20066;-59
2021/07/13 08:10:07;;;;;;;;;;;16.40;99.90;;;;;;4969154;28;20082;-59
2021/07/13 08:12:33;;;;;;;;;;;16.40;99.90;;;;;;4970300;28;19987;-59
2021/07/13 08:14:59;;;;;;;;;;;16.30;99.90;;;;;;4980593;28;19998;-59
2021/07/13 08:17:25;;;;;;;;;;;16.30;99.90;;;;;;4988840;28;19987;-59
2021/07/13 08:19:50;;;;;;;;;;;16.20;99.90;;;;;;4988560;28;20467;-59
2021/07/13 08:22:16;;;;;;;;;;;16.20;99.90;;;;;;4988162;28;20037;-59
2021/07/13 08:24:42;;;;;;;;;;;16.40;99.90;;;;;;4988163;28;20409;-59
2021/07/13 08:27:09;;;;;;;;;;;16.40;99.90;;;;;;4988204;28;20297;-59
2021/07/13 08:29:35;;;;;;;;;;;16.40;99.90;;;;;;4989072;28;20034;-59
2021/07/13 08:32:02;;;;;;;;;;;16.50;99.90;;;;;;4988758;28;20041;-59
2021/07/13 08:34:29;;;;;;;;;;;16.40;99.90;;;;;;4988104;28;20461;-59
2021/07/13 08:36:55;;;;;;;;;;;16.40;99.90;;;;;;4986659;28;19995;-59
2021/07/13 08:39:21;;;;;;;;;;;16.40;99.90;;;;;;4987985;28;20431;-59
2021/07/13 08:41:47;;;;;;;;;;;16.40;99.90;;;;;;4988133;28;19991;-59
2021/07/13 08:44:13;;;;;;;;;;;16.30;99.90;;;;;;4988039;28;20388;-59
2021/07/13 08:46:43;;;;;;;;;;;16.20;99.90;;;;;;4988073;28;20061;-59
2021/07/13 08:49:10;;;;;;;;;;;16.10;99.90;;;;;;4987930;28;19983;-59
2021/07/13 08:51:36;;;;;;;;;;;16.20;99.90;;;;;;4987987;28;20022;-59
2021/07/13 08:54:02;;;;;;;;;;;16.30;99.90;;;;;;4988358;28;20481;-59
2021/07/13 08:56:28;;;;;;;;;;;16.30;99.90;;;;;;4987697;28;19991;-59
2021/07/13 08:58:54;;;;;;;;;;;16.30;99.90;;;;;;4987750;28;20042;-59
2021/07/13 09:01:20;;;;;;;;;;;16.30;99.90;;;;;;4987562;28;20051;-59
2021/07/13 09:03:56;;;;;;;;;;;16.30;99.90;;;;;;4985547;28;20006;-59
2021/07/13 09:06:23;;;;;;;;;;;16.30;99.90;;;;;;4987509;28;20377;-59
2021/07/13 09:08:50;;;;;;;;;;;16.30;99.90;;;;;;4987694;28;19983;-59
2021/07/13 09:11:20;;;;;;;;;;;16.30;99.90;;;;;;4987436;28;19987;-59
2021/07/13 09:13:47;;;;;;;;;;;16.40;99.90;;;;;;4985378;28;20053;-59
2021/07/13 09:16:17;;;;;;;;;;;16.40;99.90;;;;;;4986271;28;20424;-59
2021/07/13 09:18:52;;;;;;;;;;;16.50;99.90;;;;;;4977608;28;19991;-58
2021/07/13 09:21:19;;;;;;;;;;;16.40;99.90;;;;;;4967808;28;20082;-58
2021/07/13 09:24:05;;;;;;;;;;;16.60;99.90;;;;;;4967782;28;20457;-58
2021/07/13 09:26:39;;;;;;;;;;;16.60;99.90;;;;;;4981187;28;20109;-59
2021/07/13 09:29:05;;;;;;;;;;;16.50;99.90;;;;;;4987760;28;20411;-58
2021/07/13 09:31:30;;;;;;;;;;;16.50;99.90;;;;;;4987201;28;19991;-59
2021/07/13 09:33:57;;;;;;;;;;;16.60;99.90;;;;;;4987193;28;20015;-59
2021/07/13 09:36:23;;;;;;;;;;;16.60;99.90;;;;;;4987291;28;21255;-58
2021/07/13 09:38:53;;;;;;;;;;;16.70;99.90;;;;;;4987496;28;20386;-59
2021/07/13 09:41:22;;;;;;;;;;;16.80;99.90;;;;;;4987301;28;19994;-58
2021/07/13 09:43:49;;;;;;;;;;;17.00;99.90;;;;;;4987104;28;20054;-58
2021/07/13 09:46:21;;;;;;;;;;;17.10;99.90;;;;;;4986420;28;20101;-58
2021/07/13 09:49:06;;;;;;;;;;;17.30;99.90;;;;;;4984628;28;20009;-58
2021/07/13 09:51:33;;;;;;;;;;;17.20;99.90;;;;;;4986191;28;20452;-58
2021/07/13 09:54:00;;;;;;;;;;;17.20;99.90;;;;;;4966096;28;20102;-58
2021/07/13 09:56:42;;;;;;;;;;;17.10;99.90;;;;;;4967489;28;20002;-58
2021/07/13 09:59:08;;;;;;;;;;;17.10;99.90;;;;;;4976542;28;19987;-58
2021/07/13 10:01:34;;;;;;;;;;;17.10;99.90;;;;;;4987879;28;19987;-58
2021/07/13 10:04:01;;;;;;;;;;;17.10;99.90;;;;;;4987212;28;20041;-58
2021/07/13 10:06:28;;;;;;;;;;;17.10;99.90;;;;;;4967942;28;20157;-58
2021/07/13 10:08:53;;;;;;;;;;;16.90;99.90;;;;;;4983521;28;20448;-58
2021/07/13 10:11:20;;;;;;;;;;;16.80;99.90;;;;;;4986897;28;19993;-58
2021/07/13 10:13:46;;;;;;;;;;;16.70;99.90;;;;;;4987209;28;20022;-58
2021/07/13 10:16:11;;;;;;;;;;;16.60;99.90;;;;;;4986379;28;19987;-58
2021/07/13 10:18:37;;;;;;;;;;;16.60;99.90;;;;;;4984857;28;20406;-59
2021/07/13 10:21:03;;;;;;;;;;;16.30;99.90;;;;;;4987070;28;19998;-58
2021/07/13 10:23:28;;;;;;;;;;;15.90;99.90;;;;;;4987182;28;19983;-58
2021/07/13 10:25:55;;;;;;;;;;;15.80;99.90;;;;;;4988230;28;20013;-58
2021/07/13 10:28:21;;;;;;;;;;;15.80;99.90;;;;;;4990470;28;20376;-58
2021/07/13 10:30:49;;;;;;;;;;;16.00;99.90;;;;;;4990632;28;19990;-59
2021/07/13 10:33:27;;;;;;;;;;;16.10;99.90;;;;;;4990075;28;20001;-59
2021/07/13 10:35:56;;;;;;;;;;;16.40;99.90;;;;;;4990558;28;19995;-59
2021/07/13 10:38:25;;;;;;;;;;;16.60;99.90;;;;;;4989508;28;20098;-58
2021/07/13 10:40:54;;;;;;;;;;;16.60;99.90;;;;;;4990957;28;19999;-58
2021/07/13 10:43:19;;;;;;;;;;;16.70;99.90;;;;;;4991311;28;20009;-58
2021/07/13 10:45:46;;;;;;;;;;;16.80;99.90;;;;;;4991479;28;20488;-58
2021/07/13 10:48:16;;;;;;;;;;;17.20;99.90;;;;;;4990614;28;20034;-58
2021/07/13 10:50:42;;;;;;;;;;;17.30;99.90;;;;;;4991152;28;20014;-58
2021/07/13 10:53:15;;;;;;;;;;;17.50;99.90;;;;;;4991331;28;20002;-58
2021/07/13 10:55:40;;;;;;;;;;;17.50;99.90;;;;;;4991260;28;20721;-58
2021/07/13 10:58:09;;;;;;;;;;;17.80;99.90;;;;;;4991321;28;19991;-58
2021/07/13 11:00:51;;;;;;;;;;;17.90;99.90;;;;;;4991970;28;20030;-58
2021/07/13 11:03:29;;;;;;;;;;;18.00;99.90;;;;;;4990966;28;19998;-58
2021/07/13 11:05:56;;;;;;;;;;;18.20;99.90;;;;;;4990904;28;20041;-57
2021/07/13 11:11:05;;;;;;;;;;;18.60;99.90;;;;;;4990641;28;19982;-58
2021/07/13 11:13:31;;;;;;;;;;;18.70;99.90;;;;;;4990944;28;20044;-59
2021/07/13 11:15:56;;;;;;;;;;;18.80;99.90;;;;;;4987304;28;20400;-58
2021/07/13 11:18:29;;;;;;;;;;;18.90;99.90;;;;;;4989400;28;20030;-58
2021/07/13 11:20:54;;;;;;;;;;;18.80;99.90;;;;;;4989957;28;20436;-58
2021/07/13 11:23:26;;;;;;;;;;;18.60;99.90;;;;;;4989298;28;19987;-58
2021/07/13 11:26:02;;;;;;;;;;;18.60;99.90;;;;;;4989466;28;20007;-58
2021/07/13 11:28:27;;;;;;;;;;;18.30;99.90;;;;;;4989760;28;19983;-57
2021/07/13 11:30:54;;;;;;;;;;;18.30;99.90;;;;;;4989763;28;19990;-58
2021/07/13 11:33:24;;;;;;;;;;;18.20;99.90;;;;;;4989253;28;19987;-58
2021/07/13 11:35:50;;;;;;;;;;;18.10;99.90;;;;;;4989773;28;20117;-58
2021/07/13 11:38:22;;;;;;;;;;;18.20;99.90;;;;;;4988372;28;20097;-58
2021/07/13 11:41:06;;;;;;;;;;;18.20;99.90;;;;;;4988371;28;19994;-58
2021/07/13 11:43:31;;;;;;;;;;;18.10;99.90;;;;;;4990110;28;19994;-58
2021/07/13 11:46:13;;;;;;;;;;;18.10;99.90;;;;;;4989382;28;20002;-57
2021/07/13 11:48:39;;;;;;;;;;;18.10;99.90;;;;;;4989259;28;19983;-58
2021/07/13 11:51:04;;;;;;;;;;;18.00;99.90;;;;;;4989575;28;19987;-57
2021/07/13 11:53:31;;;;;;;;;;;18.10;99.90;;;;;;4988877;28;20073;-57
2021/07/13 11:56:01;;;;;;;;;;;18.10;99.90;;;;;;4989370;28;19987;-57
2021/07/13 11:58:27;;;;;;;;;;;18.10;99.90;;;;;;4989035;28;19991;-57
2021/07/13 12:00:53;;;;;;;;;;;18.20;99.90;;;;;;5003956;28;19993;-57
2021/07/13 12:03:28;;;;;;;;;;;18.20;99.90;;;;;;4988513;28;19987;-58
2021/07/13 12:06:13;;;;;;;;;;;18.40;99.90;;;;;;4988938;28;20100;-58
2021/07/13 12:08:38;;;;;;;;;;;18.70;99.90;;;;;;4988958;28;19983;-58
2021/07/13 12:11:07;;;;;;;;;;;19.10;99.90;;;;;;4989117;28;20046;-57
2021/07/13 12:13:34;;;;;;;;;;;19.30;99.90;;;;;;4989255;28;20377;-57
2021/07/13 12:16:18;;;;;;;;;;;19.50;99.90;;;;;;4988839;28;20437;-57
2021/07/13 12:18:44;;;;;;;;;;;19.50;99.90;;;;;;4988702;28;20025;-57
2021/07/13 12:21:14;;;;;;;;;;;19.40;99.90;;;;;;4988462;28;20056;-57
2021/07/13 12:23:40;;;;;;;;;;;19.50;99.90;;;;;;4988239;28;19983;-57
2021/07/13 12:26:24;;;;;;;;;;;19.50;99.90;;;;;;4988273;28;20014;-57
2021/07/13 12:29:02;;;;;;;;;;;19.50;99.90;;;;;;4988425;28;20030;-58
2021/07/13 12:31:27;;;;;;;;;;;19.40;99.90;;;;;;4988422;28;19982;-57
2021/07/13 12:33:53;;;;;;;;;;;19.40;99.90;;;;;;4988351;28;20396;-57
2021/07/13 12:36:25;;;;;;;;;;;19.70;99.90;;;;;;4988148;28;20009;-58
2021/07/13 12:38:50;;;;;;;;;;;20.10;99.90;;;;;;4989128;28;19986;-57
2021/07/13 12:41:18;;;;;;;;;;;20.40;99.90;;;;;;4986175;28;19998;-58
2021/07/13 12:43:45;;;;;;;;;;;20.50;99.90;;;;;;4988345;28;20398;-57
2021/07/13 12:46:27;;;;;;;;;;;20.40;99.90;;;;;;4988077;28;20014;-57
2021/07/13 12:48:54;;;;;;;;;;;20.50;99.90;;;;;;4987071;28;20449;-58
2021/07/13 12:51:23;;;;;;;;;;;20.40;99.90;;;;;;4987786;28;20037;-57
2021/07/13 12:54:04;;;;;;;;;;;20.50;99.90;;;;;;4988166;28;20520;-57
2021/07/13 12:56:30;;;;;;;;;;;20.60;99.90;;;;;;4987949;28;20012;-57
2021/07/13 12:59:22;;;;;;;;;;;20.60;99.90;;;;;;4988319;28;20521;-57
2021/07/13 13:01:48;;;;;;;;;;;20.50;99.90;;;;;;4986512;28;19991;-57
2021/07/13 13:04:14;;;;;;;;;;;20.40;99.90;;;;;;4987651;28;19993;-57
2021/07/13 13:06:41;;;;;;;;;;;20.30;99.90;;;;;;4987778;28;20046;-57
2021/07/13 13:09:12;;;;;;;;;;;20.50;99.90;;;;;;4987628;28;20431;-57
2021/07/13 13:11:39;;;;;;;;;;;20.40;99.90;;;;;;4987636;28;19986;-57
2021/07/13 13:14:07;;;;;;;;;;;20.30;99.90;;;;;;4988121;28;19993;-57
2021/07/13 13:16:38;;;;;;;;;;;20.40;99.90;;;;;;4988525;28;19993;-57
2021/07/13 13:19:04;;;;;;;;;;;20.70;99.90;;;;;;4987945;28;19993;-57
2021/07/13 13:21:32;;;;;;;;;;;21.00;99.90;;;;;;4987653;28;19987;-57
2021/07/13 13:23:58;;;;;;;;;;;21.30;99.90;;;;;;4987096;28;19995;-57
2021/07/13 13:26:24;;;;;;;;;;;21.30;99.90;;;;;;4987485;28;20007;-57
2021/07/13 13:28:50;;;;;;;;;;;21.40;99.90;;;;;;4987635;28;19983;-57
2021/07/13 13:31:15;;;;;;;;;;;21.70;99.90;;;;;;4986967;28;20089;-58
2021/07/13 13:33:43;;;;;;;;;;;21.70;99.90;;;;;;4987331;28;19987;-57
2021/07/13 13:36:19;;;;;;;;;;;21.60;99.90;;;;;;4987478;28;20006;-57
2021/07/13 13:41:21;;;;;;;;;;;21.30;99.90;;;;;;4985883;28;20424;-57
2021/07/13 13:43:46;;;;;;;;;;;21.40;99.90;;;;;;4986850;28;20046;-57
2021/07/13 13:46:12;;;;;;;;;;;21.30;99.90;;;;;;4987125;28;20049;-57
2021/07/13 13:48:38;;;;;;;;;;;21.50;99.90;;;;;;4987274;28;20452;-57
2021/07/13 13:51:03;;;;;;;;;;;21.70;99.90;;;;;;4987737;28;20358;-57
2021/07/13 13:53:30;;;;;;;;;;;21.60;99.90;;;;;;4987184;28;20045;-57
2021/07/13 13:55:55;;;;;;;;;;;22.00;99.90;;;;;;4987802;28;20455;-58
2021/07/13 13:58:22;;;;;;;;;;;22.00;99.90;;;;;;4987260;28;19991;-57
2021/07/13 14:00:47;;;;;;;;;;;21.90;99.90;;;;;;4988688;28;20010;-57
2021/07/13 14:03:13;;;;;;;;;;;22.00;99.90;;;;;;4990880;28;20028;-58
2021/07/13 14:05:38;;;;;;;;;;;21.90;99.90;;;;;;4991391;28;20074;-58
2021/07/13 14:08:04;;;;;;;;;;;21.80;99.90;;;;;;4991314;28;19983;-57
2021/07/13 14:10:29;;;;;;;;;;;21.40;99.90;;;;;;4991151;28;20367;-57
2021/07/13 14:12:56;;;;;;;;;;;21.30;99.90;;;;;;4991476;28;20007;-57
2021/07/13 14:15:22;;;;;;;;;;;20.90;99.90;;;;;;4990709;28;19987;-57
2021/07/13 14:17:47;;;;;;;;;;;20.80;99.90;;;;;;4990958;28;20380;-57
2021/07/13 14:20:15;;;;;;;;;;;20.90;99.90;;;;;;5005550;28;19998;-57
2021/07/13 14:22:42;;;;;;;;;;;20.80;99.90;;;;;;4990809;28;20384;-57